Friday, January 30, 2015
17:00 UTC
  |  Log In   |  Register Free
Airport Search:

Firelands Community Hospital Nr 2 Airport
(OI87)

Firelands Community Hospital Nr 2 Airport Diagram
No Airport Diagram Available

FAA data valid effective January 08, 2015 - March 05, 2015 (unless otherwise noted).

 
 
 
 
 
 
 
 
 
 
 
 
 
 

Current Aviation Weather for Firelands Community Hospital Nr 2 Airport (OI87)

METAR data is unavailable for OI87. The nearest METAR location is at KPCW (8.3 nm NW from OI87).

The most recent METAR observation for KPCW was updated at: 1612
METAR Summary (Translated METAR)
KPCW
301553Z AUTO 01012KT 10SM BKN027 M08/M14 A3043 RMK AO2 T10831144 BKN
(8.3 nm NW from OI87)
KLPR
301553Z AUTO 35015KT 10SM SCT024 SCT033 M08/M13 A3039 RMK AO2 SNB1459E19 SLP302 P0000 T10831133 TSNO
(24.8 nm SE from OI87)
TAF
No TAF information found within 50 nm of KLPR
  Airport Weather Conditions for OI87

Current weather conditions are
not available for OI87


The nearest NOAA weather station
is at PCW, (8.3 nm NW from OI87)
  
 Current Weather at PCW
17° F
Mostly Cloudy
North winds at 13.8 mph
PCW NOAA Radar

Pressure: 30.43 in
Humidity: 62%
Wind: North at 13.8 MPH (12 KT)
Dew Point: 6.1°F
Visibility: 10.00 mi


Airport Weather Forecast for OI87

Translated METAR and TAF for KLPR
Translated METAR for KLPR (1701 UTC 30 January 2015)
found at http://aviationweather.gov/adds/metars/
 
METAR text: KLPR 301653Z AUTO 35017KT 9SM -SN SCT024 OVC034 M09/M14 A3040 RMK AO2 SNB35 SLP306 P0000 T10891139 TSNO
Conditions at: KLPR (LORAIN/ELYRIA , OH, US) observed 1653 UTC 30 January 2015
Temperature: -8.9°C (16°F)
Dewpoint: -13.9°C (7°F) [RH = 67%]
Pressure (altimeter): 30.40 inches Hg (1029.5 mb)
[Sea-level pressure: 1030.6 mb]
Winds: from the N (350 degrees) at 20 MPH (17 knots; 8.8 m/s)
Visibility: 9 miles (14 km)
Ceiling: 3400 feet AGL
Clouds: scattered clouds at 2400 feet AGL
overcast cloud deck at 3400 feet AGL
Weather: -SN  (light snow)
Translated TAF for KLPR

There is no translated TAF available for this airport

Find All Airport Services Find A Hotel Find A Rental Car Find A Golf Course Find A Restaurant $100 Hamburger



FBO's on the Field
FBO Company Facility Photos Services Transportation Aviation Fuel Prices: Prices include tax
Catering Weather Repair Courtesy Rental Type 100LL JetA JetA+ MOGAS 8087
 
Add another FBO Facility Photos Catering Weather Repair Courtesy Rental Type 100LL JetA JetA+ MOGAS 8087
Services Transportation Aviation Fuel Prices: Prices include tax
There are no FBO's currently reporting fuel at OI87. List your FBO now


model-print
model-print
model-print
model-print